createdAt,value
2023-05-18T00:02:05.991Z,99.90
2023-05-18T00:04:35.065Z,99.90
2023-05-18T00:07:04.905Z,99.90
2023-05-18T00:09:37.303Z,99.90
2023-05-18T00:12:05.740Z,99.90
2023-05-18T00:14:33.038Z,99.90
2023-05-18T00:17:02.126Z,99.90
2023-05-18T00:19:30.383Z,99.90
2023-05-18T00:21:58.103Z,99.90
2023-05-18T00:24:25.629Z,99.90
2023-05-18T00:26:53.052Z,99.90
2023-05-18T00:29:20.143Z,99.90
2023-05-18T00:31:47.522Z,99.90
2023-05-18T00:34:16.147Z,99.90
2023-05-18T00:36:43.585Z,99.90
2023-05-18T00:39:11.450Z,99.90
2023-05-18T00:41:40.166Z,99.90
2023-05-18T00:44:07.581Z,99.90
2023-05-18T00:46:34.948Z,99.90
2023-05-18T00:49:02.912Z,99.90
2023-05-18T00:51:32.505Z,99.90
2023-05-18T00:54:01.749Z,99.90
2023-05-18T00:56:29.221Z,99.90
2023-05-18T00:58:57.655Z,99.90
2023-05-18T01:01:30.854Z,99.90
2023-05-18T01:04:02.515Z,99.90
2023-05-18T01:06:32.930Z,99.90
2023-05-18T01:09:04.290Z,99.90
2023-05-18T01:11:51.610Z,99.90
2023-05-18T01:14:45.739Z,99.90
2023-05-18T01:17:52.793Z,99.90
2023-05-18T01:20:29.155Z,99.90
2023-05-18T01:23:10.357Z,99.90
2023-05-18T01:26:05.957Z,99.90
2023-05-18T01:28:33.801Z,99.90
2023-05-18T01:31:02.037Z,99.90
2023-05-18T01:33:29.253Z,99.90
2023-05-18T01:35:56.625Z,99.90
2023-05-18T01:38:27.488Z,99.90
2023-05-18T01:41:23.357Z,99.90
2023-05-18T01:43:53.928Z,99.90
2023-05-18T01:46:32.664Z,99.90
2023-05-18T01:49:07.077Z,99.90
2023-05-18T01:51:38.969Z,99.90
2023-05-18T01:54:08.671Z,99.90
2023-05-18T01:56:38.936Z,99.90
2023-05-18T01:59:07.188Z,99.90
2023-05-18T02:01:34.491Z,99.90
2023-05-18T02:04:01.850Z,99.90
2023-05-18T02:06:31.234Z,99.90
2023-05-18T02:08:58.367Z,99.90
2023-05-18T02:11:26.523Z,99.90
2023-05-18T02:13:53.733Z,99.90
2023-05-18T02:16:21.117Z,99.90
2023-05-18T02:18:48.834Z,99.90
2023-05-18T02:21:16.051Z,99.90
2023-05-18T02:23:43.256Z,99.90
2023-05-18T02:26:10.886Z,99.90
2023-05-18T02:28:40.577Z,99.90
2023-05-18T02:31:09.464Z,99.90
2023-05-18T02:33:40.113Z,99.90
2023-05-18T02:36:09.786Z,99.90
2023-05-18T02:38:39.711Z,99.90
2023-05-18T02:41:07.370Z,99.90
2023-05-18T02:43:34.880Z,99.90
2023-05-18T02:46:02.602Z,99.90
2023-05-18T02:48:30.092Z,99.90
2023-05-18T02:50:57.660Z,99.90
2023-05-18T02:53:26.655Z,99.90
2023-05-18T02:55:59.524Z,99.90
2023-05-18T02:58:31.916Z,99.90
2023-05-18T03:01:10.206Z,99.90
2023-05-18T03:03:42.591Z,99.90
2023-05-18T03:06:10.507Z,99.90
2023-05-18T03:08:38.035Z,99.90
2023-05-18T03:11:05.777Z,99.90
2023-05-18T03:13:33.425Z,99.90
2023-05-18T03:16:01.242Z,99.90
2023-05-18T03:18:28.713Z,99.90
2023-05-18T03:20:56.484Z,99.90
2023-05-18T03:23:24.011Z,99.90
2023-05-18T03:25:53.928Z,99.90
2023-05-18T03:28:23.171Z,99.90
2023-05-18T03:30:50.796Z,99.90
2023-05-18T03:33:18.390Z,99.90
2023-05-18T03:35:48.353Z,99.90
2023-05-18T03:38:16.437Z,99.90
2023-05-18T03:40:49.043Z,99.90
2023-05-18T03:43:16.536Z,99.90
2023-05-18T03:45:45.640Z,99.90
2023-05-18T03:48:13.313Z,99.90
2023-05-18T03:50:40.968Z,99.90
2023-05-18T03:53:09.664Z,99.90
2023-05-18T03:55:37.207Z,99.90
2023-05-18T03:58:04.581Z,99.90
2023-05-18T04:00:32.546Z,99.90
2023-05-18T04:03:00.864Z,99.90
2023-05-18T04:05:28.804Z,99.90
2023-05-18T04:07:57.657Z,99.90
2023-05-18T04:10:25.443Z,99.90
2023-05-18T04:12:52.940Z,99.90
2023-05-18T04:15:20.356Z,99.90
2023-05-18T04:17:52.048Z,99.90
2023-05-18T04:20:19.914Z,99.90
2023-05-18T04:22:48.876Z,99.90
2023-05-18T04:25:18.082Z,99.90
2023-05-18T04:27:45.810Z,99.90
2023-05-18T04:30:14.001Z,99.90
2023-05-18T04:32:43.477Z,99.90
2023-05-18T04:35:12.114Z,99.90
2023-05-18T04:37:41.292Z,99.90
2023-05-18T04:40:14.307Z,99.90
2023-05-18T04:42:45.910Z,99.90
2023-05-18T04:45:17.367Z,99.90
2023-05-18T04:47:47.073Z,99.90
2023-05-18T04:50:16.871Z,99.90
2023-05-18T04:52:48.863Z,99.90
2023-05-18T04:55:23.347Z,99.90
2023-05-18T04:57:54.166Z,99.90
2023-05-18T05:00:21.896Z,99.90
2023-05-18T05:02:49.517Z,99.90
2023-05-18T05:05:17.275Z,99.90
2023-05-18T05:07:45.011Z,99.90
2023-05-18T05:10:12.410Z,99.90
2023-05-18T05:12:41.383Z,99.90
2023-05-18T05:15:09.984Z,99.90
2023-05-18T05:17:37.867Z,99.90
2023-05-18T05:20:08.945Z,99.90
2023-05-18T05:22:37.669Z,99.90
2023-05-18T05:25:08.104Z,99.90
2023-05-18T05:27:35.764Z,99.90
2023-05-18T05:30:03.800Z,99.90
2023-05-18T05:32:33.928Z,99.90
2023-05-18T05:35:01.804Z,99.90
2023-05-18T05:37:29.582Z,99.90
2023-05-18T05:39:57.290Z,99.90
2023-05-18T05:42:25.932Z,99.90
2023-05-18T05:44:53.708Z,99.90
2023-05-18T05:47:21.712Z,99.90
2023-05-18T05:49:49.838Z,99.90
2023-05-18T05:52:17.232Z,99.90
2023-05-18T05:54:44.802Z,99.90
2023-05-18T05:57:13.475Z,99.90
2023-05-18T05:59:40.869Z,99.90
2023-05-18T06:02:08.366Z,99.90
2023-05-18T06:04:36.102Z,99.90
2023-05-18T06:07:04.053Z,99.90
2023-05-18T06:09:32.047Z,99.90
2023-05-18T06:12:00.446Z,99.90
2023-05-18T06:14:29.235Z,99.90
2023-05-18T06:16:58.474Z,99.90
2023-05-18T06:19:26.715Z,99.90
2023-05-18T06:21:54.460Z,99.90
2023-05-18T06:24:22.482Z,99.90
2023-05-18T06:27:01.898Z,99.90
2023-05-18T06:29:49.412Z,99.90
2023-05-18T06:32:34.787Z,99.90
2023-05-18T06:35:03.589Z,99.90
2023-05-18T06:37:31.455Z,99.90
2023-05-18T06:39:59.381Z,99.90
2023-05-18T06:42:26.717Z,99.90
2023-05-18T06:45:04.658Z,99.90
2023-05-18T06:47:50.447Z,99.90
2023-05-18T06:50:18.141Z,99.90
2023-05-18T06:52:45.792Z,99.90
2023-05-18T06:55:13.730Z,99.90
2023-05-18T06:57:41.999Z,99.90
2023-05-18T07:00:12.538Z,99.90
2023-05-18T07:02:41.117Z,99.90
2023-05-18T07:05:09.448Z,99.90
2023-05-18T07:07:37.925Z,99.90
2023-05-18T07:10:06.145Z,99.90
2023-05-18T07:12:33.694Z,99.90
2023-05-18T07:15:01.200Z,99.90
2023-05-18T07:17:28.840Z,99.90
2023-05-18T07:19:56.218Z,99.90
2023-05-18T07:22:23.782Z,99.90
2023-05-18T07:24:51.129Z,99.90
2023-05-18T07:27:18.747Z,99.90
2023-05-18T07:29:46.673Z,99.90
2023-05-18T07:32:14.102Z,99.90
2023-05-18T07:34:43.723Z,99.90
2023-05-18T07:37:11.130Z,99.90
2023-05-18T07:39:39.008Z,99.90
2023-05-18T07:42:08.798Z,99.90
2023-05-18T07:44:36.206Z,99.90
2023-05-18T07:47:03.902Z,99.90
2023-05-18T07:49:31.473Z,99.90
2023-05-18T07:51:59.631Z,99.90
2023-05-18T07:54:27.723Z,99.90
2023-05-18T07:56:56.144Z,99.90
2023-05-18T07:59:24.857Z,99.90
2023-05-18T08:01:52.426Z,99.90
2023-05-18T08:04:19.972Z,99.90
2023-05-18T08:06:47.583Z,99.90
2023-05-18T08:09:15.504Z,99.90
2023-05-18T08:11:45.146Z,99.90
2023-05-18T08:14:12.514Z,99.90
2023-05-18T08:16:40.180Z,99.90
2023-05-18T08:19:07.710Z,98.60
2023-05-18T08:21:35.304Z,97.50
2023-05-18T08:24:04.032Z,96.60
2023-05-18T08:26:32.406Z,96.20
2023-05-18T08:29:01.914Z,95.60
2023-05-18T08:31:29.398Z,94.20
2023-05-18T08:33:56.838Z,92.80
2023-05-18T08:36:24.183Z,91.70
2023-05-18T08:38:53.768Z,91.20
2023-05-18T08:41:26.841Z,86.60
2023-05-18T08:44:02.309Z,87.00
2023-05-18T08:46:34.854Z,85.70
2023-05-18T08:49:05.218Z,87.80
2023-05-18T08:51:36.845Z,82.00
2023-05-18T08:54:06.500Z,84.50
2023-05-18T08:56:34.867Z,86.50
2023-05-18T09:00:06.822Z,84.50
2023-05-18T09:02:35.978Z,88.10
2023-05-18T09:05:07.453Z,88.30
2023-05-18T09:07:37.340Z,88.60
2023-05-18T09:10:07.858Z,82.30
2023-05-18T09:12:37.045Z,88.10
2023-05-18T09:15:06.951Z,84.70
2023-05-18T09:17:36.241Z,90.50
2023-05-18T09:20:07.194Z,87.20
2023-05-18T09:22:37.781Z,86.10
2023-05-18T09:25:11.453Z,90.00
2023-05-18T09:27:40.992Z,85.80
2023-05-18T09:30:12.852Z,90.00
2023-05-18T09:32:43.017Z,81.70
2023-05-18T09:35:12.994Z,87.30
2023-05-18T09:37:45.722Z,90.00
2023-05-18T09:40:17.146Z,89.20
2023-05-18T09:42:46.656Z,82.70
2023-05-18T09:45:20.954Z,83.50
2023-05-18T09:47:52.248Z,86.60
2023-05-18T09:50:21.914Z,86.70
2023-05-18T09:52:51.304Z,87.70
2023-05-18T09:55:22.663Z,86.40
2023-05-18T09:57:52.239Z,91.10
2023-05-18T10:00:24.787Z,92.00
2023-05-18T10:02:54.269Z,89.80
2023-05-18T10:05:25.553Z,89.00
2023-05-18T10:07:58.719Z,86.80
2023-05-18T10:10:32.334Z,90.20
2023-05-18T10:13:03.304Z,86.30
2023-05-18T10:15:33.914Z,86.70
2023-05-18T10:18:07.231Z,90.90
2023-05-18T10:20:36.807Z,86.60
2023-05-18T10:23:09.762Z,90.80
2023-05-18T10:25:41.240Z,91.00
2023-05-18T10:28:12.407Z,90.80
2023-05-18T10:30:43.575Z,90.40
2023-05-18T10:33:24.542Z,92.20
2023-05-18T10:35:57.190Z,88.80
2023-05-18T10:38:27.618Z,85.90
2023-05-18T10:41:01.327Z,89.30
2023-05-18T10:43:30.476Z,89.30
2023-05-18T10:46:01.873Z,88.60
2023-05-18T10:48:32.469Z,90.90
2023-05-18T10:51:01.777Z,90.40
2023-05-18T10:53:31.224Z,90.80
2023-05-18T10:56:01.281Z,86.50
2023-05-18T10:58:34.019Z,88.10
2023-05-18T11:01:07.008Z,84.10
2023-05-18T11:03:36.919Z,85.50
2023-05-18T11:06:12.653Z,87.00
2023-05-18T11:08:53.558Z,92.10
2023-05-18T11:11:27.363Z,92.30
2023-05-18T11:14:01.746Z,89.00
2023-05-18T11:16:37.509Z,87.50
2023-05-18T11:19:09.240Z,87.90
2023-05-18T11:21:37.781Z,86.90
2023-05-18T11:24:32.280Z,87.90
2023-05-18T11:27:04.147Z,88.80
2023-05-18T11:29:38.286Z,89.50
2023-05-18T11:32:29.912Z,90.60
2023-05-18T11:35:00.813Z,91.00
2023-05-18T11:37:49.908Z,90.20
2023-05-18T11:40:47.990Z,91.10
2023-05-18T11:43:25.956Z,91.10
2023-05-18T11:45:59.491Z,90.40
2023-05-18T11:48:31.090Z,92.70
2023-05-18T11:50:59.455Z,92.30
2023-05-18T11:53:28.366Z,93.60
2023-05-18T11:55:57.884Z,91.90
2023-05-18T11:58:27.366Z,95.20
2023-05-18T12:00:56.666Z,94.00
2023-05-18T12:03:27.319Z,90.10
2023-05-18T12:06:01.520Z,92.20
2023-05-18T12:08:30.603Z,94.70
2023-05-18T12:11:00.173Z,94.10
2023-05-18T12:13:29.258Z,93.10
2023-05-18T12:15:59.252Z,92.80
2023-05-18T12:18:30.869Z,92.80
2023-05-18T12:20:59.891Z,90.80
2023-05-18T12:23:38.860Z,90.70
2023-05-18T12:26:08.576Z,91.10
2023-05-18T12:28:37.520Z,92.20
2023-05-18T12:31:09.287Z,93.30
2023-05-18T12:33:38.232Z,92.50
2023-05-18T12:36:12.503Z,91.40
2023-05-18T12:38:41.773Z,89.70
2023-05-18T12:41:10.563Z,90.70
2023-05-18T12:43:39.247Z,91.10
2023-05-18T12:46:08.151Z,92.40
2023-05-18T12:48:56.355Z,91.60
2023-05-18T12:51:32.984Z,91.30
2023-05-18T12:54:03.137Z,93.70
2023-05-18T12:57:03.167Z,91.30
2023-05-18T12:59:32.558Z,93.00
2023-05-18T13:02:01.709Z,91.80
2023-05-18T13:04:37.630Z,91.60
2023-05-18T13:07:06.416Z,92.20
2023-05-18T13:09:35.166Z,94.20
2023-05-18T13:12:07.954Z,91.60
2023-05-18T13:14:39.823Z,90.60
2023-05-18T13:17:08.280Z,92.90
2023-05-18T13:19:37.554Z,92.60
2023-05-18T13:22:06.344Z,91.00
2023-05-18T13:24:35.274Z,93.00
2023-05-18T13:27:03.883Z,93.80
2023-05-18T13:29:35.237Z,93.60
2023-05-18T13:32:04.693Z,92.60
2023-05-18T13:34:33.989Z,93.70
2023-05-18T13:37:03.039Z,92.30
2023-05-18T13:39:32.232Z,94.40
2023-05-18T13:42:03.071Z,94.30
2023-05-18T13:44:31.902Z,94.40
2023-05-18T13:47:00.664Z,94.40
2023-05-18T13:49:29.394Z,95.40
2023-05-18T13:52:01.175Z,97.50
2023-05-18T13:54:29.627Z,99.70
2023-05-18T13:56:58.526Z,99.80
2023-05-18T13:59:28.583Z,99.90
2023-05-18T14:01:57.034Z,99.90
2023-05-18T14:04:25.939Z,99.90
2023-05-18T14:06:54.916Z,99.90
2023-05-18T14:09:24.154Z,99.90
2023-05-18T14:11:53.848Z,99.90
2023-05-18T14:14:22.842Z,99.90
2023-05-18T14:16:51.395Z,99.90
2023-05-18T14:19:20.181Z,99.90
2023-05-18T14:21:48.964Z,99.90
2023-05-18T14:24:17.923Z,99.90
2023-05-18T14:26:46.704Z,99.90
2023-05-18T14:29:15.923Z,99.90
2023-05-18T14:31:44.524Z,99.90
2023-05-18T14:34:13.404Z,99.90
2023-05-18T14:36:41.689Z,99.90
2023-05-18T14:39:10.532Z,99.90
2023-05-18T14:41:38.837Z,99.90
2023-05-18T14:44:09.429Z,99.90
2023-05-18T14:46:39.529Z,99.90
2023-05-18T14:49:10.452Z,99.90
2023-05-18T14:51:39.377Z,99.90
2023-05-18T14:54:08.137Z,99.90
2023-05-18T14:56:36.864Z,99.90
2023-05-18T14:59:06.156Z,99.90
2023-05-18T15:01:34.763Z,99.90
2023-05-18T15:04:03.707Z,99.90
2023-05-18T15:06:32.542Z,99.90
2023-05-18T15:09:06.883Z,99.90
2023-05-18T15:11:35.246Z,99.90
2023-05-18T15:14:04.148Z,99.90
2023-05-18T15:16:32.905Z,99.90
2023-05-18T15:19:01.733Z,99.90
2023-05-18T15:21:30.799Z,99.90
2023-05-18T15:23:59.389Z,99.90
2023-05-18T15:26:28.599Z,99.90
2023-05-18T15:28:57.039Z,99.90
2023-05-18T15:31:25.813Z,99.90
2023-05-18T15:33:54.425Z,99.90
2023-05-18T15:36:23.335Z,99.90
2023-05-18T15:38:51.911Z,99.90
2023-05-18T15:41:20.506Z,99.90
2023-05-18T15:43:49.224Z,99.90
2023-05-18T15:46:17.771Z,99.90
2023-05-18T15:48:46.377Z,99.90
2023-05-18T15:51:15.204Z,99.90
2023-05-18T15:53:43.855Z,99.90
2023-05-18T15:56:12.831Z,99.90
2023-05-18T15:58:41.653Z,99.90
2023-05-18T16:01:10.606Z,99.90
2023-05-18T16:03:39.522Z,99.90
2023-05-18T16:06:08.897Z,99.90
2023-05-18T16:08:37.329Z,99.90
2023-05-18T16:11:07.791Z,99.90
2023-05-18T16:13:36.491Z,99.90
2023-05-18T16:16:07.912Z,99.90
2023-05-18T16:18:37.659Z,99.90
2023-05-18T16:21:06.332Z,99.90
2023-05-18T16:23:35.733Z,99.90
2023-05-18T16:26:05.977Z,99.90
2023-05-18T16:28:34.801Z,99.90
2023-05-18T16:31:12.922Z,99.90
2023-05-18T16:33:42.066Z,99.90
2023-05-18T16:36:10.741Z,99.90
2023-05-18T16:38:40.047Z,99.90
2023-05-18T16:41:09.040Z,99.90
2023-05-18T16:43:40.620Z,99.90
2023-05-18T16:46:09.968Z,99.90
2023-05-18T16:48:38.728Z,99.90
2023-05-18T16:51:07.493Z,99.90
2023-05-18T16:53:35.984Z,99.90
2023-05-18T16:56:05.394Z,99.90
2023-05-18T16:58:33.950Z,99.90
2023-05-18T17:01:09.753Z,99.90
2023-05-18T17:03:45.052Z,99.90
2023-05-18T17:06:15.550Z,99.90
2023-05-18T17:08:45.574Z,99.90
2023-05-18T17:11:15.048Z,99.90
2023-05-18T17:13:45.138Z,99.90
2023-05-18T17:16:14.843Z,99.90
2023-05-18T17:18:44.488Z,99.90
2023-05-18T17:21:14.391Z,99.90
2023-05-18T17:23:42.865Z,99.90
2023-05-18T17:26:12.772Z,99.90
2023-05-18T17:28:42.245Z,99.90
2023-05-18T17:31:09.570Z,99.90
2023-05-18T17:33:36.926Z,99.90
2023-05-18T17:36:07.291Z,99.90
2023-05-18T17:38:36.162Z,99.90
2023-05-18T17:41:06.290Z,99.90
2023-05-18T17:43:36.899Z,99.90
2023-05-18T17:46:05.836Z,99.90
2023-05-18T17:48:33.423Z,99.90
2023-05-18T17:51:01.197Z,99.90
2023-05-18T17:53:28.374Z,99.90
2023-05-18T17:55:55.799Z,99.90
2023-05-18T17:58:23.252Z,99.90
2023-05-18T18:00:50.650Z,99.90
2023-05-18T18:03:18.073Z,99.90
2023-05-18T18:05:45.217Z,99.90
2023-05-18T18:08:16.940Z,99.90
2023-05-18T18:10:44.279Z,99.90
2023-05-18T18:13:11.573Z,99.90
2023-05-18T18:15:48.390Z,99.90
2023-05-18T18:18:17.022Z,99.90
2023-05-18T18:20:44.319Z,99.90
2023-05-18T18:23:13.079Z,99.90
2023-05-18T18:25:41.992Z,99.90
2023-05-18T18:28:14.610Z,99.90
2023-05-18T18:30:44.887Z,99.90
2023-05-18T18:33:14.715Z,99.90
2023-05-18T18:35:43.878Z,99.90
2023-05-18T18:38:13.289Z,99.90
2023-05-18T18:40:41.728Z,99.90
2023-05-18T18:43:09.545Z,99.90
2023-05-18T18:45:37.642Z,99.90
2023-05-18T18:48:05.989Z,99.90
2023-05-18T18:50:33.612Z,99.90
2023-05-18T18:53:01.363Z,99.90
2023-05-18T18:55:28.847Z,99.90
2023-05-18T18:57:59.694Z,99.90
2023-05-18T19:00:27.720Z,99.90
2023-05-18T19:02:55.131Z,99.90
2023-05-18T19:05:24.940Z,99.90
2023-05-18T19:07:55.882Z,99.90
2023-05-18T19:10:23.933Z,99.90
2023-05-18T19:12:51.251Z,99.90
2023-05-18T19:15:19.326Z,99.90
2023-05-18T19:17:47.429Z,99.90
2023-05-18T19:20:15.390Z,99.90
2023-05-18T19:22:42.616Z,99.90
2023-05-18T19:25:10.386Z,99.90
2023-05-18T19:27:37.775Z,99.90
2023-05-18T19:30:06.243Z,99.90
2023-05-18T19:32:34.366Z,99.90
2023-05-18T19:35:02.019Z,99.90
2023-05-18T19:37:29.421Z,99.90
2023-05-18T19:39:56.745Z,99.90
2023-05-18T19:42:23.947Z,99.90
2023-05-18T19:44:51.013Z,99.90
2023-05-18T19:47:18.400Z,99.90
2023-05-18T19:49:46.406Z,99.90
2023-05-18T19:52:13.790Z,99.90
2023-05-18T19:54:41.629Z,99.90
2023-05-18T19:57:09.233Z,99.90
2023-05-18T19:59:37.253Z,99.90
2023-05-18T20:02:05.880Z,99.90
2023-05-18T20:07:01.456Z,99.90
2023-05-18T20:09:29.040Z,99.90
2023-05-18T20:11:56.691Z,99.90
2023-05-18T20:14:24.275Z,99.90
2023-05-18T20:16:52.507Z,99.90
2023-05-18T20:19:20.035Z,99.90
2023-05-18T20:21:48.762Z,99.90
2023-05-18T20:24:16.082Z,99.90
2023-05-18T20:26:43.976Z,99.90
2023-05-18T20:29:11.413Z,99.90
2023-05-18T20:31:38.783Z,99.90
2023-05-18T20:34:07.255Z,99.90
2023-05-18T20:36:36.186Z,99.90
2023-05-18T20:39:03.956Z,99.90
2023-05-18T20:41:32.337Z,99.90
2023-05-18T20:44:02.149Z,99.90
2023-05-18T20:46:34.290Z,99.90
2023-05-18T20:49:01.618Z,99.90
2023-05-18T20:51:29.067Z,99.90
2023-05-18T20:53:56.335Z,99.90
2023-05-18T20:56:23.919Z,99.90
2023-05-18T20:58:51.280Z,99.90
2023-05-18T21:01:18.770Z,99.90
2023-05-18T21:03:46.394Z,99.90
2023-05-18T21:06:14.436Z,99.90
2023-05-18T21:08:42.507Z,99.90
2023-05-18T21:11:10.649Z,99.90
2023-05-18T21:13:37.773Z,99.90
2023-05-18T21:16:06.724Z,99.90
2023-05-18T21:18:34.954Z,99.90
2023-05-18T21:21:03.097Z,99.90
2023-05-18T21:23:30.586Z,99.90
2023-05-18T21:25:58.141Z,99.90
2023-05-18T21:28:25.492Z,99.90
2023-05-18T21:30:53.005Z,99.90
2023-05-18T21:33:21.527Z,99.90
2023-05-18T21:35:48.817Z,99.90
2023-05-18T21:38:17.344Z,99.90
2023-05-18T21:40:44.650Z,99.90
2023-05-18T21:43:12.997Z,99.90
2023-05-18T21:45:40.926Z,99.90
2023-05-18T21:48:08.611Z,99.90
2023-05-18T21:50:36.019Z,99.90
2023-05-18T21:53:03.952Z,99.90
2023-05-18T21:55:32.287Z,99.90
2023-05-18T21:58:00.100Z,99.90
2023-05-18T22:00:28.178Z,99.90
2023-05-18T22:02:55.810Z,99.90
2023-05-18T22:05:23.150Z,99.90
2023-05-18T22:07:50.468Z,99.90
2023-05-18T22:10:18.307Z,99.90
2023-05-18T22:12:46.258Z,99.90
2023-05-18T22:15:13.665Z,99.90
2023-05-18T22:17:41.087Z,99.90
2023-05-18T22:20:09.755Z,99.90
2023-05-18T22:22:40.607Z,99.90
2023-05-18T22:25:08.322Z,99.90
2023-05-18T22:27:36.989Z,99.90
2023-05-18T22:30:06.432Z,99.90
2023-05-18T22:32:33.905Z,99.90
2023-05-18T22:35:02.288Z,99.90
2023-05-18T22:37:29.610Z,99.90
2023-05-18T22:39:57.540Z,99.90
2023-05-18T22:42:24.891Z,99.90
2023-05-18T22:44:52.546Z,99.90
2023-05-18T22:47:23.639Z,99.90
2023-05-18T22:49:51.483Z,99.90
2023-05-18T22:52:19.102Z,99.90
2023-05-18T22:54:47.838Z,99.90
2023-05-18T22:57:15.183Z,99.90
2023-05-18T22:59:42.668Z,99.90
2023-05-18T23:02:10.020Z,99.90
2023-05-18T23:04:37.512Z,99.90
2023-05-18T23:07:04.981Z,99.90
2023-05-18T23:09:32.376Z,99.90
2023-05-18T23:12:01.455Z,99.90
2023-05-18T23:14:31.448Z,99.90
2023-05-18T23:16:58.857Z,99.90
2023-05-18T23:19:27.028Z,99.90
2023-05-18T23:21:54.913Z,99.90
2023-05-18T23:24:22.594Z,99.90
2023-05-18T23:26:49.861Z,99.90
2023-05-18T23:29:17.818Z,99.90
2023-05-18T23:31:45.224Z,99.90
2023-05-18T23:34:12.744Z,99.90
2023-05-18T23:36:42.870Z,99.90
2023-05-18T23:39:10.419Z,99.90
2023-05-18T23:41:38.349Z,99.90
2023-05-18T23:44:06.703Z,99.90
2023-05-18T23:46:34.988Z,99.90
2023-05-18T23:49:02.646Z,99.90
2023-05-18T23:51:33.559Z,99.90
2023-05-18T23:54:03.287Z,99.90
2023-05-18T23:56:30.867Z,99.90
2023-05-18T23:58:58.567Z,99.90
